sensor_id;sensor_type;location;lat;lon;timestamp;P1;durP1;ratioP1;P2;durP2;ratioP2
30000;SDS011;16845;48.670;9.000;2024-01-27T00:00:21;4.70;;;2.10;;
30000;SDS011;16845;48.670;9.000;2024-01-27T00:02:47;5.65;;;2.40;;
30000;SDS011;16845;48.670;9.000;2024-01-27T00:05:14;4.35;;;2.20;;
30000;SDS011;16845;48.670;9.000;2024-01-27T00:07:42;8.18;;;2.63;;
30000;SDS011;16845;48.670;9.000;2024-01-27T00:10:09;8.57;;;3.00;;
30000;SDS011;16845;48.670;9.000;2024-01-27T00:12:36;4.65;;;2.17;;
30000;SDS011;16845;48.670;9.000;2024-01-27T00:15:03;7.13;;;2.63;;
30000;SDS011;16845;48.670;9.000;2024-01-27T00:19:56;5.80;;;2.47;;
30000;SDS011;16845;48.670;9.000;2024-01-27T00:22:23;11.00;;;3.07;;
30000;SDS011;16845;48.670;9.000;2024-01-27T00:24:51;6.07;;;2.50;;
30000;SDS011;16845;48.670;9.000;2024-01-27T00:27:17;6.18;;;2.50;;
30000;SDS011;16845;48.670;9.000;2024-01-27T00:29:44;10.18;;;2.85;;
30000;SDS011;16845;48.670;9.000;2024-01-27T00:32:10;7.75;;;2.95;;
30000;SDS011;16845;48.670;9.000;2024-01-27T00:34:37;5.53;;;3.13;;
30000;SDS011;16845;48.670;9.000;2024-01-27T00:37:04;8.33;;;2.77;;
30000;SDS011;16845;48.670;9.000;2024-01-27T00:39:31;7.83;;;3.43;;
30000;SDS011;16845;48.670;9.000;2024-01-27T00:41:59;7.05;;;2.83;;
30000;SDS011;16845;48.670;9.000;2024-01-27T00:44:26;6.40;;;2.42;;
30000;SDS011;16845;48.670;9.000;2024-01-27T00:46:52;3.30;;;1.83;;
30000;SDS011;16845;48.670;9.000;2024-01-27T00:49:19;12.80;;;2.93;;
30000;SDS011;16845;48.670;9.000;2024-01-27T00:51:45;5.72;;;2.95;;
30000;SDS011;16845;48.670;9.000;2024-01-27T00:54:12;5.03;;;3.67;;
30000;SDS011;16845;48.670;9.000;2024-01-27T00:56:39;5.93;;;2.88;;
30000;SDS011;16845;48.670;9.000;2024-01-27T00:59:06;4.37;;;2.83;;
30000;SDS011;16845;48.670;9.000;2024-01-27T01:01:33;7.80;;;2.70;;
30000;SDS011;16845;48.670;9.000;2024-01-27T01:03:59;8.10;;;3.83;;
30000;SDS011;16845;48.670;9.000;2024-01-27T01:06:26;8.95;;;3.78;;
30000;SDS011;16845;48.670;9.000;2024-01-27T01:08:53;8.93;;;3.35;;
30000;SDS011;16845;48.670;9.000;2024-01-27T01:11:20;8.43;;;2.92;;
30000;SDS011;16845;48.670;9.000;2024-01-27T01:13:46;7.27;;;3.17;;
30000;SDS011;16845;48.670;9.000;2024-01-27T01:16:14;8.50;;;2.60;;
30000;SDS011;16845;48.670;9.000;2024-01-27T01:18:40;5.35;;;2.85;;
30000;SDS011;16845;48.670;9.000;2024-01-27T01:21:07;8.60;;;3.30;;
30000;SDS011;16845;48.670;9.000;2024-01-27T01:23:34;5.50;;;3.00;;
30000;SDS011;16845;48.670;9.000;2024-01-27T01:26:00;6.35;;;3.35;;
30000;SDS011;16845;48.670;9.000;2024-01-27T01:28:27;9.67;;;3.20;;
30000;SDS011;16845;48.670;9.000;2024-01-27T01:30:53;7.77;;;3.87;;
30000;SDS011;16845;48.670;9.000;2024-01-27T01:33:21;4.30;;;2.53;;
30000;SDS011;16845;48.670;9.000;2024-01-27T01:35:48;4.15;;;2.95;;
30000;SDS011;16845;48.670;9.000;2024-01-27T01:38:15;10.70;;;3.10;;
30000;SDS011;16845;48.670;9.000;2024-01-27T01:40:41;8.52;;;3.13;;
30000;SDS011;16845;48.670;9.000;2024-01-27T01:43:09;7.20;;;2.92;;
30000;SDS011;16845;48.670;9.000;2024-01-27T01:45:36;4.95;;;3.17;;
30000;SDS011;16845;48.670;9.000;2024-01-27T01:48:02;10.35;;;3.38;;
30000;SDS011;16845;48.670;9.000;2024-01-27T01:50:31;7.07;;;3.08;;
30000;SDS011;16845;48.670;9.000;2024-01-27T01:52:58;10.07;;;4.70;;
30000;SDS011;16845;48.670;9.000;2024-01-27T01:55:24;10.38;;;3.42;;
30000;SDS011;16845;48.670;9.000;2024-01-27T01:57:51;8.13;;;2.65;;
30000;SDS011;16845;48.670;9.000;2024-01-27T02:00:17;9.07;;;3.30;;
30000;SDS011;16845;48.670;9.000;2024-01-27T02:02:44;21.90;;;3.55;;
30000;SDS011;16845;48.670;9.000;2024-01-27T02:05:11;7.43;;;3.47;;
30000;SDS011;16845;48.670;9.000;2024-01-27T02:07:39;7.35;;;3.17;;
30000;SDS011;16845;48.670;9.000;2024-01-27T02:10:07;16.83;;;4.72;;
30000;SDS011;16845;48.670;9.000;2024-01-27T02:12:39;14.38;;;3.95;;
30000;SDS011;16845;48.670;9.000;2024-01-27T02:15:08;10.45;;;4.03;;
30000;SDS011;16845;48.670;9.000;2024-01-27T02:17:36;7.32;;;3.80;;
30000;SDS011;16845;48.670;9.000;2024-01-27T02:20:03;7.93;;;3.33;;
30000;SDS011;16845;48.670;9.000;2024-01-27T02:22:30;8.68;;;3.58;;
30000;SDS011;16845;48.670;9.000;2024-01-27T02:24:57;8.17;;;4.33;;
30000;SDS011;16845;48.670;9.000;2024-01-27T02:27:24;9.70;;;4.53;;
30000;SDS011;16845;48.670;9.000;2024-01-27T02:29:51;11.05;;;3.88;;
30000;SDS011;16845;48.670;9.000;2024-01-27T02:32:17;7.68;;;3.35;;
30000;SDS011;16845;48.670;9.000;2024-01-27T02:34:44;5.53;;;3.50;;
30000;SDS011;16845;48.670;9.000;2024-01-27T02:37:10;11.10;;;4.30;;
30000;SDS011;16845;48.670;9.000;2024-01-27T02:39:38;9.60;;;4.03;;
30000;SDS011;16845;48.670;9.000;2024-01-27T02:42:06;7.77;;;3.33;;
30000;SDS011;16845;48.670;9.000;2024-01-27T02:44:32;11.55;;;3.28;;
30000;SDS011;16845;48.670;9.000;2024-01-27T02:46:59;8.40;;;4.03;;
30000;SDS011;16845;48.670;9.000;2024-01-27T02:49:25;6.67;;;4.07;;
30000;SDS011;16845;48.670;9.000;2024-01-27T02:51:52;9.65;;;4.03;;
30000;SDS011;16845;48.670;9.000;2024-01-27T02:54:18;8.48;;;3.63;;
30000;SDS011;16845;48.670;9.000;2024-01-27T02:56:45;10.13;;;3.78;;
30000;SDS011;16845;48.670;9.000;2024-01-27T02:59:13;7.45;;;3.85;;
30000;SDS011;16845;48.670;9.000;2024-01-27T03:01:40;12.00;;;4.00;;
30000;SDS011;16845;48.670;9.000;2024-01-27T03:04:06;13.73;;;3.83;;
30000;SDS011;16845;48.670;9.000;2024-01-27T03:06:33;7.53;;;3.88;;
30000;SDS011;16845;48.670;9.000;2024-01-27T03:08:59;10.23;;;3.88;;
30000;SDS011;16845;48.670;9.000;2024-01-27T03:11:26;7.40;;;4.75;;
30000;SDS011;16845;48.670;9.000;2024-01-27T03:13:52;7.20;;;4.07;;
30000;SDS011;16845;48.670;9.000;2024-01-27T03:16:20;13.95;;;3.75;;
30000;SDS011;16845;48.670;9.000;2024-01-27T03:18:47;8.48;;;4.25;;
30000;SDS011;16845;48.670;9.000;2024-01-27T03:21:14;10.93;;;4.00;;
30000;SDS011;16845;48.670;9.000;2024-01-27T03:23:40;6.00;;;3.22;;
30000;SDS011;16845;48.670;9.000;2024-01-27T03:26:07;10.83;;;3.80;;
30000;SDS011;16845;48.670;9.000;2024-01-27T03:28:33;11.25;;;4.65;;
30000;SDS011;16845;48.670;9.000;2024-01-27T03:31:00;7.43;;;3.22;;
30000;SDS011;16845;48.670;9.000;2024-01-27T03:33:28;7.07;;;3.17;;
30000;SDS011;16845;48.670;9.000;2024-01-27T03:35:54;13.27;;;3.58;;
30000;SDS011;16845;48.670;9.000;2024-01-27T03:38:21;9.57;;;4.25;;
30000;SDS011;16845;48.670;9.000;2024-01-27T03:40:48;10.93;;;4.10;;
30000;SDS011;16845;48.670;9.000;2024-01-27T03:43:14;10.65;;;3.95;;
30000;SDS011;16845;48.670;9.000;2024-01-27T03:45:41;7.40;;;4.07;;
30000;SDS011;16845;48.670;9.000;2024-01-27T03:48:07;7.25;;;4.03;;
30000;SDS011;16845;48.670;9.000;2024-01-27T03:50:36;14.95;;;4.75;;
30000;SDS011;16845;48.670;9.000;2024-01-27T03:53:02;10.50;;;4.28;;
30000;SDS011;16845;48.670;9.000;2024-01-27T03:55:29;7.05;;;3.42;;
30000;SDS011;16845;48.670;9.000;2024-01-27T03:57:56;6.32;;;3.67;;
30000;SDS011;16845;48.670;9.000;2024-01-27T04:00:22;9.73;;;4.20;;
30000;SDS011;16845;48.670;9.000;2024-01-27T04:02:49;9.55;;;3.60;;
30000;SDS011;16845;48.670;9.000;2024-01-27T04:05:15;17.08;;;4.50;;
30000;SDS011;16845;48.670;9.000;2024-01-27T04:07:43;8.30;;;3.90;;
30000;SDS011;16845;48.670;9.000;2024-01-27T04:10:10;7.65;;;3.60;;
30000;SDS011;16845;48.670;9.000;2024-01-27T04:12:36;15.32;;;4.03;;
30000;SDS011;16845;48.670;9.000;2024-01-27T04:15:03;11.95;;;3.80;;
30000;SDS011;16845;48.670;9.000;2024-01-27T04:17:30;5.65;;;3.33;;
30000;SDS011;16845;48.670;9.000;2024-01-27T04:19:57;6.80;;;3.55;;
30000;SDS011;16845;48.670;9.000;2024-01-27T04:22:23;7.80;;;3.55;;
30000;SDS011;16845;48.670;9.000;2024-01-27T04:24:51;16.23;;;4.15;;
30000;SDS011;16845;48.670;9.000;2024-01-27T04:27:17;11.30;;;3.95;;
30000;SDS011;16845;48.670;9.000;2024-01-27T04:29:44;11.77;;;4.05;;
30000;SDS011;16845;48.670;9.000;2024-01-27T04:32:11;11.98;;;4.30;;
30000;SDS011;16845;48.670;9.000;2024-01-27T04:34:37;11.02;;;3.70;;
30000;SDS011;16845;48.670;9.000;2024-01-27T04:37:04;8.55;;;4.55;;
30000;SDS011;16845;48.670;9.000;2024-01-27T04:39:31;18.63;;;5.20;;
30000;SDS011;16845;48.670;9.000;2024-01-27T04:41:59;9.05;;;3.85;;
30000;SDS011;16845;48.670;9.000;2024-01-27T04:44:25;10.45;;;4.25;;
30000;SDS011;16845;48.670;9.000;2024-01-27T04:46:52;8.10;;;4.10;;
30000;SDS011;16845;48.670;9.000;2024-01-27T04:49:18;15.68;;;5.75;;
30000;SDS011;16845;48.670;9.000;2024-01-27T04:51:45;12.02;;;4.32;;
30000;SDS011;16845;48.670;9.000;2024-01-27T04:54:12;11.32;;;4.03;;
30000;SDS011;16845;48.670;9.000;2024-01-27T04:56:38;8.07;;;4.35;;
30000;SDS011;16845;48.670;9.000;2024-01-27T04:59:06;18.60;;;6.03;;
30000;SDS011;16845;48.670;9.000;2024-01-27T05:01:33;6.80;;;4.10;;
30000;SDS011;16845;48.670;9.000;2024-01-27T05:03:59;12.25;;;4.93;;
30000;SDS011;16845;48.670;9.000;2024-01-27T05:06:26;10.77;;;4.47;;
30000;SDS011;16845;48.670;9.000;2024-01-27T05:08:53;5.90;;;4.05;;
30000;SDS011;16845;48.670;9.000;2024-01-27T05:11:25;9.18;;;4.55;;
30000;SDS011;16845;48.670;9.000;2024-01-27T05:13:52;8.13;;;3.88;;
30000;SDS011;16845;48.670;9.000;2024-01-27T05:16:20;7.85;;;4.18;;
30000;SDS011;16845;48.670;9.000;2024-01-27T05:18:46;7.80;;;4.05;;
30000;SDS011;16845;48.670;9.000;2024-01-27T05:21:13;12.07;;;4.97;;
30000;SDS011;16845;48.670;9.000;2024-01-27T05:23:39;13.45;;;4.93;;
30000;SDS011;16845;48.670;9.000;2024-01-27T05:26:06;13.75;;;4.32;;
30000;SDS011;16845;48.670;9.000;2024-01-27T05:28:32;6.05;;;4.00;;
30000;SDS011;16845;48.670;9.000;2024-01-27T05:30:59;11.07;;;4.57;;
30000;SDS011;16845;48.670;9.000;2024-01-27T05:33:27;7.13;;;4.15;;
30000;SDS011;16845;48.670;9.000;2024-01-27T05:35:54;9.40;;;4.60;;
30000;SDS011;16845;48.670;9.000;2024-01-27T05:38:20;15.95;;;5.55;;
30000;SDS011;16845;48.670;9.000;2024-01-27T05:40:47;8.70;;;3.92;;
30000;SDS011;16845;48.670;9.000;2024-01-27T05:43:13;14.02;;;4.63;;
30000;SDS011;16845;48.670;9.000;2024-01-27T05:45:40;10.20;;;4.32;;
30000;SDS011;16845;48.670;9.000;2024-01-27T05:48:07;15.57;;;5.60;;
30000;SDS011;16845;48.670;9.000;2024-01-27T05:53:01;14.30;;;5.23;;
30000;SDS011;16845;48.670;9.000;2024-01-27T05:55:28;7.63;;;4.00;;
30000;SDS011;16845;48.670;9.000;2024-01-27T05:57:55;11.88;;;4.78;;
30000;SDS011;16845;48.670;9.000;2024-01-27T06:00:21;11.95;;;4.50;;
30000;SDS011;16845;48.670;9.000;2024-01-27T06:02:48;10.75;;;5.43;;
30000;SDS011;16845;48.670;9.000;2024-01-27T06:05:14;10.02;;;4.63;;
30000;SDS011;16845;48.670;9.000;2024-01-27T06:07:43;7.20;;;4.75;;
30000;SDS011;16845;48.670;9.000;2024-01-27T06:10:09;7.82;;;4.95;;
30000;SDS011;16845;48.670;9.000;2024-01-27T06:12:36;10.68;;;4.70;;
30000;SDS011;16845;48.670;9.000;2024-01-27T06:15:04;10.13;;;4.90;;
30000;SDS011;16845;48.670;9.000;2024-01-27T06:17:31;5.85;;;4.10;;
30000;SDS011;16845;48.670;9.000;2024-01-27T06:19:58;16.77;;;4.85;;
30000;SDS011;16845;48.670;9.000;2024-01-27T06:22:24;7.18;;;4.75;;
30000;SDS011;16845;48.670;9.000;2024-01-27T06:24:52;9.68;;;5.40;;
30000;SDS011;16845;48.670;9.000;2024-01-27T06:27:19;13.68;;;5.60;;
30000;SDS011;16845;48.670;9.000;2024-01-27T06:29:45;18.37;;;5.97;;
30000;SDS011;16845;48.670;9.000;2024-01-27T06:32:12;10.90;;;5.35;;
30000;SDS011;16845;48.670;9.000;2024-01-27T06:34:39;9.07;;;4.32;;
30000;SDS011;16845;48.670;9.000;2024-01-27T06:37:05;9.35;;;5.10;;
30000;SDS011;16845;48.670;9.000;2024-01-27T06:39:32;8.20;;;5.18;;
30000;SDS011;16845;48.670;9.000;2024-01-27T06:42:00;6.45;;;4.05;;
30000;SDS011;16845;48.670;9.000;2024-01-27T06:44:26;7.57;;;4.85;;
30000;SDS011;16845;48.670;9.000;2024-01-27T06:46:53;11.80;;;5.32;;
30000;SDS011;16845;48.670;9.000;2024-01-27T06:49:19;9.65;;;6.10;;
30000;SDS011;16845;48.670;9.000;2024-01-27T06:51:46;8.38;;;4.13;;
30000;SDS011;16845;48.670;9.000;2024-01-27T06:54:13;10.90;;;5.25;;
30000;SDS011;16845;48.670;9.000;2024-01-27T06:56:40;20.10;;;6.25;;
30000;SDS011;16845;48.670;9.000;2024-01-27T06:59:08;10.27;;;5.68;;
30000;SDS011;16845;48.670;9.000;2024-01-27T07:01:34;10.50;;;5.28;;
30000;SDS011;16845;48.670;9.000;2024-01-27T07:04:01;16.45;;;6.03;;
30000;SDS011;16845;48.670;9.000;2024-01-27T07:06:27;12.45;;;5.13;;
30000;SDS011;16845;48.670;9.000;2024-01-27T07:08:54;15.45;;;5.85;;
30000;SDS011;16845;48.670;9.000;2024-01-27T07:11:21;9.48;;;5.28;;
30000;SDS011;16845;48.670;9.000;2024-01-27T07:13:47;15.63;;;5.40;;
30000;SDS011;16845;48.670;9.000;2024-01-27T07:16:15;11.07;;;5.60;;
30000;SDS011;16845;48.670;9.000;2024-01-27T07:18:42;11.35;;;5.32;;
30000;SDS011;16845;48.670;9.000;2024-01-27T07:21:08;14.45;;;6.00;;
30000;SDS011;16845;48.670;9.000;2024-01-27T07:23:41;8.68;;;5.13;;
30000;SDS011;16845;48.670;9.000;2024-01-27T07:26:08;9.90;;;5.13;;
30000;SDS011;16845;48.670;9.000;2024-01-27T07:28:35;11.15;;;5.30;;
30000;SDS011;16845;48.670;9.000;2024-01-27T07:31:02;14.38;;;5.70;;
30000;SDS011;16845;48.670;9.000;2024-01-27T07:33:30;8.27;;;5.70;;
30000;SDS011;16845;48.670;9.000;2024-01-27T07:35:57;9.18;;;5.50;;
30000;SDS011;16845;48.670;9.000;2024-01-27T07:38:23;11.85;;;5.32;;
30000;SDS011;16845;48.670;9.000;2024-01-27T07:40:50;6.85;;;5.57;;
30000;SDS011;16845;48.670;9.000;2024-01-27T07:43:16;12.63;;;6.57;;
30000;SDS011;16845;48.670;9.000;2024-01-27T07:45:43;10.95;;;5.72;;
30000;SDS011;16845;48.670;9.000;2024-01-27T07:48:09;10.75;;;5.03;;
30000;SDS011;16845;48.670;9.000;2024-01-27T07:50:37;8.32;;;5.45;;
30000;SDS011;16845;48.670;9.000;2024-01-27T07:53:04;15.98;;;5.85;;
30000;SDS011;16845;48.670;9.000;2024-01-27T07:55:30;18.00;;;6.80;;
30000;SDS011;16845;48.670;9.000;2024-01-27T07:57:57;9.17;;;5.67;;
30000;SDS011;16845;48.670;9.000;2024-01-27T08:00:23;15.77;;;6.03;;
30000;SDS011;16845;48.670;9.000;2024-01-27T08:02:50;11.43;;;6.18;;
30000;SDS011;16845;48.670;9.000;2024-01-27T08:05:17;9.75;;;5.50;;
30000;SDS011;16845;48.670;9.000;2024-01-27T08:07:48;12.82;;;5.30;;
30000;SDS011;16845;48.670;9.000;2024-01-27T08:10:15;9.30;;;5.63;;
30000;SDS011;16845;48.670;9.000;2024-01-27T08:12:42;12.93;;;5.57;;
30000;SDS011;16845;48.670;9.000;2024-01-27T08:15:08;9.80;;;5.93;;
30000;SDS011;16845;48.670;9.000;2024-01-27T08:17:35;7.53;;;5.43;;
30000;SDS011;16845;48.670;9.000;2024-01-27T08:20:02;12.25;;;5.45;;
30000;SDS011;16845;48.670;9.000;2024-01-27T08:22:29;15.95;;;8.80;;
30000;SDS011;16845;48.670;9.000;2024-01-27T08:24:57;13.23;;;6.93;;
30000;SDS011;16845;48.670;9.000;2024-01-27T08:27:23;12.30;;;5.78;;
30000;SDS011;16845;48.670;9.000;2024-01-27T08:29:50;14.07;;;6.90;;
30000;SDS011;16845;48.670;9.000;2024-01-27T08:32:17;17.80;;;6.65;;
30000;SDS011;16845;48.670;9.000;2024-01-27T08:34:43;12.85;;;6.05;;
30000;SDS011;16845;48.670;9.000;2024-01-27T08:37:14;10.70;;;6.85;;
30000;SDS011;16845;48.670;9.000;2024-01-27T08:39:41;15.57;;;5.60;;
30000;SDS011;16845;48.670;9.000;2024-01-27T08:42:09;10.55;;;5.43;;
30000;SDS011;16845;48.670;9.000;2024-01-27T08:44:36;10.50;;;5.80;;
30000;SDS011;16845;48.670;9.000;2024-01-27T08:47:03;8.90;;;5.37;;
30000;SDS011;16845;48.670;9.000;2024-01-27T08:49:33;10.05;;;6.07;;
30000;SDS011;16845;48.670;9.000;2024-01-27T08:52:00;9.45;;;5.55;;
30000;SDS011;16845;48.670;9.000;2024-01-27T08:54:26;10.17;;;6.20;;
30000;SDS011;16845;48.670;9.000;2024-01-27T08:56:53;11.90;;;5.90;;
30000;SDS011;16845;48.670;9.000;2024-01-27T08:59:21;15.67;;;8.17;;
30000;SDS011;16845;48.670;9.000;2024-01-27T09:01:47;14.70;;;6.55;;
30000;SDS011;16845;48.670;9.000;2024-01-27T09:04:14;20.30;;;7.27;;
30000;SDS011;16845;48.670;9.000;2024-01-27T09:06:40;13.70;;;6.70;;
30000;SDS011;16845;48.670;9.000;2024-01-27T09:09:07;8.65;;;5.22;;
30000;SDS011;16845;48.670;9.000;2024-01-27T09:11:33;17.03;;;5.60;;
30000;SDS011;16845;48.670;9.000;2024-01-27T09:14:00;15.07;;;4.75;;
30000;SDS011;16845;48.670;9.000;2024-01-27T09:16:28;14.23;;;4.35;;
30000;SDS011;16845;48.670;9.000;2024-01-27T09:18:54;12.15;;;5.00;;
30000;SDS011;16845;48.670;9.000;2024-01-27T09:21:21;12.07;;;4.95;;
30000;SDS011;16845;48.670;9.000;2024-01-27T09:23:47;10.52;;;4.63;;
30000;SDS011;16845;48.670;9.000;2024-01-27T09:26:14;8.77;;;2.97;;
30000;SDS011;16845;48.670;9.000;2024-01-27T09:28:40;8.10;;;4.60;;
30000;SDS011;16845;48.670;9.000;2024-01-27T09:31:08;10.70;;;4.25;;
30000;SDS011;16845;48.670;9.000;2024-01-27T09:33:37;4.32;;;3.42;;
30000;SDS011;16845;48.670;9.000;2024-01-27T09:36:04;6.80;;;3.75;;
30000;SDS011;16845;48.670;9.000;2024-01-27T09:38:31;5.68;;;3.50;;
30000;SDS011;16845;48.670;9.000;2024-01-27T09:40:57;8.37;;;3.73;;
30000;SDS011;16845;48.670;9.000;2024-01-27T09:43:25;10.85;;;3.70;;
30000;SDS011;16845;48.670;9.000;2024-01-27T09:45:54;8.88;;;4.85;;
30000;SDS011;16845;48.670;9.000;2024-01-27T09:48:24;11.25;;;4.45;;
30000;SDS011;16845;48.670;9.000;2024-01-27T09:50:52;8.70;;;4.00;;
30000;SDS011;16845;48.670;9.000;2024-01-27T09:53:20;8.40;;;4.10;;
30000;SDS011;16845;48.670;9.000;2024-01-27T09:55:47;9.70;;;4.60;;
30000;SDS011;16845;48.670;9.000;2024-01-27T09:58:14;10.63;;;4.18;;
30000;SDS011;16845;48.670;9.000;2024-01-27T10:00:40;11.70;;;4.85;;
30000;SDS011;16845;48.670;9.000;2024-01-27T10:05:34;14.20;;;4.70;;
30000;SDS011;16845;48.670;9.000;2024-01-27T10:10:32;10.93;;;4.40;;
30000;SDS011;16845;48.670;9.000;2024-01-27T10:12:58;9.83;;;4.00;;
30000;SDS011;16845;48.670;9.000;2024-01-27T10:15:27;8.40;;;3.90;;
30000;SDS011;16845;48.670;9.000;2024-01-27T10:18:03;7.35;;;4.15;;
30000;SDS011;16845;48.670;9.000;2024-01-27T10:20:30;9.75;;;3.15;;
30000;SDS011;16845;48.670;9.000;2024-01-27T10:22:57;10.13;;;3.30;;
30000;SDS011;16845;48.670;9.000;2024-01-27T10:25:25;6.45;;;3.13;;
30000;SDS011;16845;48.670;9.000;2024-01-27T10:27:55;8.85;;;3.40;;
30000;SDS011;16845;48.670;9.000;2024-01-27T10:30:21;6.78;;;2.92;;
30000;SDS011;16845;48.670;9.000;2024-01-27T10:32:54;11.20;;;3.53;;
30000;SDS011;16845;48.670;9.000;2024-01-27T10:35:22;13.15;;;3.25;;
30000;SDS011;16845;48.670;9.000;2024-01-27T10:37:51;7.40;;;3.23;;
30000;SDS011;16845;48.670;9.000;2024-01-27T10:40:21;8.93;;;2.25;;
30000;SDS011;16845;48.670;9.000;2024-01-27T10:42:51;6.10;;;2.75;;
30000;SDS011;16845;48.670;9.000;2024-01-27T10:45:27;10.70;;;3.85;;
30000;SDS011;16845;48.670;9.000;2024-01-27T10:47:55;6.25;;;2.53;;
30000;SDS011;16845;48.670;9.000;2024-01-27T10:50:26;9.25;;;4.43;;
30000;SDS011;16845;48.670;9.000;2024-01-27T10:52:52;14.77;;;3.15;;
30000;SDS011;16845;48.670;9.000;2024-01-27T10:55:22;7.97;;;3.10;;
30000;SDS011;16845;48.670;9.000;2024-01-27T10:57:50;7.95;;;2.75;;
30000;SDS011;16845;48.670;9.000;2024-01-27T11:00:18;5.45;;;2.70;;
30000;SDS011;16845;48.670;9.000;2024-01-27T11:02:45;10.85;;;3.50;;
30000;SDS011;16845;48.670;9.000;2024-01-27T11:05:12;9.23;;;3.00;;
30000;SDS011;16845;48.670;9.000;2024-01-27T11:07:40;7.20;;;3.03;;
30000;SDS011;16845;48.670;9.000;2024-01-27T11:10:08;8.07;;;3.28;;
30000;SDS011;16845;48.670;9.000;2024-01-27T11:12:35;7.70;;;3.03;;
30000;SDS011;16845;48.670;9.000;2024-01-27T11:15:04;6.68;;;2.88;;
30000;SDS011;16845;48.670;9.000;2024-01-27T11:17:37;9.93;;;3.30;;
30000;SDS011;16845;48.670;9.000;2024-01-27T11:20:05;15.38;;;3.85;;
30000;SDS011;16845;48.670;9.000;2024-01-27T11:22:33;7.25;;;3.10;;
30000;SDS011;16845;48.670;9.000;2024-01-27T11:25:07;10.70;;;4.90;;
30000;SDS011;16845;48.670;9.000;2024-01-27T11:27:34;12.35;;;3.00;;
30000;SDS011;16845;48.670;9.000;2024-01-27T11:30:00;9.23;;;3.17;;
30000;SDS011;16845;48.670;9.000;2024-01-27T11:32:28;7.43;;;3.10;;
30000;SDS011;16845;48.670;9.000;2024-01-27T11:34:56;7.30;;;2.90;;
30000;SDS011;16845;48.670;9.000;2024-01-27T11:37:23;8.18;;;3.72;;
30000;SDS011;16845;48.670;9.000;2024-01-27T11:39:50;6.85;;;2.83;;
30000;SDS011;16845;48.670;9.000;2024-01-27T11:42:16;7.70;;;2.95;;
30000;SDS011;16845;48.670;9.000;2024-01-27T11:44:43;9.57;;;3.22;;
30000;SDS011;16845;48.670;9.000;2024-01-27T11:47:14;12.43;;;2.80;;
30000;SDS011;16845;48.670;9.000;2024-01-27T11:49:42;7.25;;;2.58;;
30000;SDS011;16845;48.670;9.000;2024-01-27T11:52:11;9.23;;;2.67;;
30000;SDS011;16845;48.670;9.000;2024-01-27T11:54:37;10.17;;;2.80;;
30000;SDS011;16845;48.670;9.000;2024-01-27T11:57:04;9.70;;;2.95;;
30000;SDS011;16845;48.670;9.000;2024-01-27T11:59:31;7.72;;;3.10;;
30000;SDS011;16845;48.670;9.000;2024-01-27T12:02:00;7.88;;;2.72;;
30000;SDS011;16845;48.670;9.000;2024-01-27T12:04:27;7.15;;;2.78;;
30000;SDS011;16845;48.670;9.000;2024-01-27T12:06:55;7.78;;;2.63;;
30000;SDS011;16845;48.670;9.000;2024-01-27T12:09:22;12.32;;;4.32;;
30000;SDS011;16845;48.670;9.000;2024-01-27T12:11:48;9.83;;;3.07;;
30000;SDS011;16845;48.670;9.000;2024-01-27T12:14:16;11.73;;;3.17;;
30000;SDS011;16845;48.670;9.000;2024-01-27T12:16:43;6.22;;;2.42;;
30000;SDS011;16845;48.670;9.000;2024-01-27T12:19:10;5.93;;;2.75;;
30000;SDS011;16845;48.670;9.000;2024-01-27T12:21:37;9.30;;;2.55;;
30000;SDS011;16845;48.670;9.000;2024-01-27T12:24:05;8.30;;;2.55;;
30000;SDS011;16845;48.670;9.000;2024-01-27T12:26:46;8.82;;;2.55;;
30000;SDS011;16845;48.670;9.000;2024-01-27T12:29:12;5.80;;;1.87;;
30000;SDS011;16845;48.670;9.000;2024-01-27T12:31:39;5.75;;;2.10;;
30000;SDS011;16845;48.670;9.000;2024-01-27T12:34:05;6.65;;;1.92;;
30000;SDS011;16845;48.670;9.000;2024-01-27T12:36:33;11.45;;;2.00;;
30000;SDS011;16845;48.670;9.000;2024-01-27T12:39:01;7.25;;;2.22;;
30000;SDS011;16845;48.670;9.000;2024-01-27T12:41:30;5.72;;;2.05;;
30000;SDS011;16845;48.670;9.000;2024-01-27T12:43:56;6.53;;;2.22;;
30000;SDS011;16845;48.670;9.000;2024-01-27T12:46:24;6.50;;;1.83;;
30000;SDS011;16845;48.670;9.000;2024-01-27T12:48:51;6.57;;;2.42;;
30000;SDS011;16845;48.670;9.000;2024-01-27T12:51:17;4.97;;;1.65;;
30000;SDS011;16845;48.670;9.000;2024-01-27T12:53:44;6.50;;;1.98;;
30000;SDS011;16845;48.670;9.000;2024-01-27T12:56:11;5.65;;;1.52;;
30000;SDS011;16845;48.670;9.000;2024-01-27T12:58:40;5.45;;;1.60;;
30000;SDS011;16845;48.670;9.000;2024-01-27T13:01:08;5.32;;;1.42;;
30000;SDS011;16845;48.670;9.000;2024-01-27T13:03:35;4.53;;;1.20;;
30000;SDS011;16845;48.670;9.000;2024-01-27T13:06:02;2.90;;;1.45;;
30000;SDS011;16845;48.670;9.000;2024-01-27T13:10:56;5.70;;;1.70;;
30000;SDS011;16845;48.670;9.000;2024-01-27T13:13:22;2.38;;;0.93;;
30000;SDS011;16845;48.670;9.000;2024-01-27T13:15:50;7.40;;;1.57;;
30000;SDS011;16845;48.670;9.000;2024-01-27T13:18:17;5.53;;;1.58;;
30000;SDS011;16845;48.670;9.000;2024-01-27T13:20:43;5.43;;;1.83;;
30000;SDS011;16845;48.670;9.000;2024-01-27T13:23:10;5.45;;;1.45;;
30000;SDS011;16845;48.670;9.000;2024-01-27T13:25:36;3.73;;;1.67;;
30000;SDS011;16845;48.670;9.000;2024-01-27T13:28:03;4.87;;;2.00;;
30000;SDS011;16845;48.670;9.000;2024-01-27T13:30:30;7.22;;;1.33;;
30000;SDS011;16845;48.670;9.000;2024-01-27T13:32:58;6.05;;;1.42;;
30000;SDS011;16845;48.670;9.000;2024-01-27T13:35:25;6.25;;;1.70;;
30000;SDS011;16845;48.670;9.000;2024-01-27T13:37:51;3.40;;;1.30;;
30000;SDS011;16845;48.670;9.000;2024-01-27T13:40:18;3.20;;;1.40;;
30000;SDS011;16845;48.670;9.000;2024-01-27T13:42:44;4.97;;;1.90;;
30000;SDS011;16845;48.670;9.000;2024-01-27T13:45:11;6.23;;;1.70;;
30000;SDS011;16845;48.670;9.000;2024-01-27T13:47:38;5.15;;;1.45;;
30000;SDS011;16845;48.670;9.000;2024-01-27T13:50:07;4.13;;;1.50;;
30000;SDS011;16845;48.670;9.000;2024-01-27T13:52:35;3.88;;;1.80;;
30000;SDS011;16845;48.670;9.000;2024-01-27T13:55:01;6.67;;;1.40;;
30000;SDS011;16845;48.670;9.000;2024-01-27T13:57:28;5.57;;;1.50;;
30000;SDS011;16845;48.670;9.000;2024-01-27T13:59:55;5.78;;;1.80;;
30000;SDS011;16845;48.670;9.000;2024-01-27T14:02:22;3.70;;;1.77;;
30000;SDS011;16845;48.670;9.000;2024-01-27T14:04:48;4.80;;;1.50;;
30000;SDS011;16845;48.670;9.000;2024-01-27T14:07:16;6.43;;;1.38;;
30000;SDS011;16845;48.670;9.000;2024-01-27T14:09:43;6.13;;;1.83;;
30000;SDS011;16845;48.670;9.000;2024-01-27T14:12:10;4.80;;;1.77;;
30000;SDS011;16845;48.670;9.000;2024-01-27T14:14:36;3.33;;;1.67;;
30000;SDS011;16845;48.670;9.000;2024-01-27T14:17:03;7.32;;;1.90;;
30000;SDS011;16845;48.670;9.000;2024-01-27T14:19:30;3.95;;;2.13;;
30000;SDS011;16845;48.670;9.000;2024-01-27T14:21:56;8.70;;;2.03;;
30000;SDS011;16845;48.670;9.000;2024-01-27T14:24:24;6.95;;;1.63;;
30000;SDS011;16845;48.670;9.000;2024-01-27T14:26:51;6.80;;;3.13;;
30000;SDS011;16845;48.670;9.000;2024-01-27T14:29:17;9.60;;;2.50;;
30000;SDS011;16845;48.670;9.000;2024-01-27T14:31:44;4.87;;;2.03;;
30000;SDS011;16845;48.670;9.000;2024-01-27T14:34:11;6.72;;;2.58;;
30000;SDS011;16845;48.670;9.000;2024-01-27T14:36:37;5.93;;;2.42;;
30000;SDS011;16845;48.670;9.000;2024-01-27T14:39:04;11.70;;;2.40;;
30000;SDS011;16845;48.670;9.000;2024-01-27T14:41:32;8.60;;;1.90;;
30000;SDS011;16845;48.670;9.000;2024-01-27T14:43:59;8.00;;;2.40;;
30000;SDS011;16845;48.670;9.000;2024-01-27T14:46:25;7.72;;;2.00;;
30000;SDS011;16845;48.670;9.000;2024-01-27T14:48:52;4.05;;;2.35;;
30000;SDS011;16845;48.670;9.000;2024-01-27T14:51:18;9.50;;;2.27;;
30000;SDS011;16845;48.670;9.000;2024-01-27T14:53:45;3.43;;;2.00;;